sensor_id;sensor_type;location;lat;lon;timestamp;P1;P2;P0
77320;PMS7003;66382;52.252;8.780;2023-02-27T00:01:15;5.00;5.00;3.50
77320;PMS7003;66382;52.252;8.780;2023-02-27T00:03:42;3.00;3.00;2.00
77320;PMS7003;66382;52.252;8.780;2023-02-27T00:06:08;5.00;5.00;3.50
77320;PMS7003;66382;52.252;8.780;2023-02-27T00:08:34;5.00;5.00;3.00
77320;PMS7003;66382;52.252;8.780;2023-02-27T00:10:59;6.00;6.00;5.00
77320;PMS7003;66382;52.252;8.780;2023-02-27T00:13:25;7.50;7.50;5.00
77320;PMS7003;66382;52.252;8.780;2023-02-27T00:15:51;5.50;5.50;5.00
77320;PMS7003;66382;52.252;8.780;2023-02-27T00:18:16;2.75;2.75;2.75
77320;PMS7003;66382;52.252;8.780;2023-02-27T00:20:44;4.50;4.50;3.50
77320;PMS7003;66382;52.252;8.780;2023-02-27T00:23:09;2.00;2.00;2.00
77320;PMS7003;66382;52.252;8.780;2023-02-27T00:25:35;3.50;3.50;3.50
77320;PMS7003;66382;52.252;8.780;2023-02-27T00:28:01;5.00;5.00;3.00
77320;PMS7003;66382;52.252;8.780;2023-02-27T00:30:27;5.50;5.50;4.50
77320;PMS7003;66382;52.252;8.780;2023-02-27T00:32:53;3.00;3.00;2.75
77320;PMS7003;66382;52.252;8.780;2023-02-27T00:35:19;3.00;3.00;3.00
77320;PMS7003;66382;52.252;8.780;2023-02-27T00:37:47;5.00;5.00;3.00
77320;PMS7003;66382;52.252;8.780;2023-02-27T00:40:13;5.25;5.25;5.00
77320;PMS7003;66382;52.252;8.780;2023-02-27T00:42:39;6.00;6.00;3.00
77320;PMS7003;66382;52.252;8.780;2023-02-27T00:45:05;5.75;5.75;3.00
77320;PMS7003;66382;52.252;8.780;2023-02-27T00:47:32;5.25;5.25;4.00
77320;PMS7003;66382;52.252;8.780;2023-02-27T00:49:58;5.00;5.00;3.00
77320;PMS7003;66382;52.252;8.780;2023-02-27T00:52:24;6.75;6.25;5.00
77320;PMS7003;66382;52.252;8.780;2023-02-27T00:54:52;4.75;4.75;3.00
77320;PMS7003;66382;52.252;8.780;2023-02-27T00:57:18;3.50;3.50;3.00
77320;PMS7003;66382;52.252;8.780;2023-02-27T00:59:43;5.00;5.00;5.00
77320;PMS7003;66382;52.252;8.780;2023-02-27T01:02:09;5.50;5.50;5.00
77320;PMS7003;66382;52.252;8.780;2023-02-27T01:04:35;5.00;5.00;3.50
77320;PMS7003;66382;52.252;8.780;2023-02-27T01:07:01;5.00;5.00;3.00
77320;PMS7003;66382;52.252;8.780;2023-02-27T01:09:26;5.00;5.00;5.00
77320;PMS7003;66382;52.252;8.780;2023-02-27T01:11:54;5.75;5.75;4.50
77320;PMS7003;66382;52.252;8.780;2023-02-27T01:14:19;5.00;5.00;3.25
77320;PMS7003;66382;52.252;8.780;2023-02-27T01:16:45;6.25;6.25;4.75
77320;PMS7003;66382;52.252;8.780;2023-02-27T01:19:11;6.00;6.00;5.50
77320;PMS7003;66382;52.252;8.780;2023-02-27T01:21:36;4.00;4.00;4.00
77320;PMS7003;66382;52.252;8.780;2023-02-27T01:24:02;6.00;5.00;3.00
77320;PMS7003;66382;52.252;8.780;2023-02-27T01:26:28;5.50;5.50;5.00
77320;PMS7003;66382;52.252;8.780;2023-02-27T01:28:55;7.25;7.25;6.00
77320;PMS7003;66382;52.252;8.780;2023-02-27T01:31:21;5.75;5.75;4.75
77320;PMS7003;66382;52.252;8.780;2023-02-27T01:33:47;5.00;5.00;3.50
77320;PMS7003;66382;52.252;8.780;2023-02-27T01:36:12;5.00;5.00;5.00
77320;PMS7003;66382;52.252;8.780;2023-02-27T01:38:38;5.00;4.00;3.25
77320;PMS7003;66382;52.252;8.780;2023-02-27T01:41:04;9.00;9.00;6.25
77320;PMS7003;66382;52.252;8.780;2023-02-27T01:43:30;5.25;5.25;3.25
77320;PMS7003;66382;52.252;8.780;2023-02-27T01:45:57;7.25;7.25;6.00
77320;PMS7003;66382;52.252;8.780;2023-02-27T01:48:23;5.75;5.75;5.00
77320;PMS7003;66382;52.252;8.780;2023-02-27T01:50:52;5.50;5.50;5.00
77320;PMS7003;66382;52.252;8.780;2023-02-27T01:53:20;5.25;5.25;4.25
77320;PMS7003;66382;52.252;8.780;2023-02-27T01:55:46;8.75;8.75;6.50
77320;PMS7003;66382;52.252;8.780;2023-02-27T01:58:13;8.50;8.50;7.25
77320;PMS7003;66382;52.252;8.780;2023-02-27T02:00:40;8.75;8.75;6.75
77320;PMS7003;66382;52.252;8.780;2023-02-27T02:03:10;6.50;6.50;5.00
77320;PMS7003;66382;52.252;8.780;2023-02-27T02:05:41;12.75;12.50;8.75
77320;PMS7003;66382;52.252;8.780;2023-02-27T02:08:09;10.75;10.75;8.00
77320;PMS7003;66382;52.252;8.780;2023-02-27T02:10:37;16.75;16.75;13.75
77320;PMS7003;66382;52.252;8.780;2023-02-27T02:13:04;17.50;17.00;13.25
77320;PMS7003;66382;52.252;8.780;2023-02-27T02:15:30;14.00;14.00;11.50
77320;PMS7003;66382;52.252;8.780;2023-02-27T02:18:03;13.00;13.00;10.00
77320;PMS7003;66382;52.252;8.780;2023-02-27T02:27:06;9.00;9.00;7.25
77320;PMS7003;66382;52.252;8.780;2023-02-27T02:32:54;9.75;9.75;8.25
77320;PMS7003;66382;52.252;8.780;2023-02-27T02:38:57;6.00;6.00;6.00
77320;PMS7003;66382;52.252;8.780;2023-02-27T02:41:46;6.00;6.00;5.75
77320;PMS7003;66382;52.252;8.780;2023-02-27T02:44:21;8.00;8.00;5.25
77320;PMS7003;66382;52.252;8.780;2023-02-27T02:46:55;8.50;8.50;6.00
77320;PMS7003;66382;52.252;8.780;2023-02-27T02:49:29;5.25;5.25;5.00
77320;PMS7003;66382;52.252;8.780;2023-02-27T02:52:01;8.00;8.00;6.00
77320;PMS7003;66382;52.252;8.780;2023-02-27T02:54:38;5.00;5.00;4.75
77320;PMS7003;66382;52.252;8.780;2023-02-27T02:57:08;7.00;7.00;5.00
77320;PMS7003;66382;52.252;8.780;2023-02-27T02:59:40;7.25;7.25;5.00
77320;PMS7003;66382;52.252;8.780;2023-02-27T03:02:13;5.00;5.00;4.25
77320;PMS7003;66382;52.252;8.780;2023-02-27T03:04:44;6.00;6.00;5.50
77320;PMS7003;66382;52.252;8.780;2023-02-27T03:07:16;5.00;5.00;4.75
77320;PMS7003;66382;52.252;8.780;2023-02-27T03:09:48;8.00;6.00;5.00
77320;PMS7003;66382;52.252;8.780;2023-02-27T03:12:20;6.50;6.50;5.25
77320;PMS7003;66382;52.252;8.780;2023-02-27T03:14:49;5.25;5.25;5.00
77320;PMS7003;66382;52.252;8.780;2023-02-27T03:17:23;5.25;5.25;4.75
77320;PMS7003;66382;52.252;8.780;2023-02-27T03:19:55;7.75;7.75;5.75
77320;PMS7003;66382;52.252;8.780;2023-02-27T03:22:26;10.00;10.00;6.50
77320;PMS7003;66382;52.252;8.780;2023-02-27T03:24:58;6.00;6.00;6.00
77320;PMS7003;66382;52.252;8.780;2023-02-27T03:27:28;7.00;7.00;5.50
77320;PMS7003;66382;52.252;8.780;2023-02-27T03:30:00;7.25;7.25;5.00
77320;PMS7003;66382;52.252;8.780;2023-02-27T03:32:30;6.25;6.25;6.00
77320;PMS7003;66382;52.252;8.780;2023-02-27T03:35:01;6.50;6.50;5.00
77320;PMS7003;66382;52.252;8.780;2023-02-27T03:37:29;8.00;8.00;6.00
77320;PMS7003;66382;52.252;8.780;2023-02-27T03:40:08;6.00;6.00;5.00
77320;PMS7003;66382;52.252;8.780;2023-02-27T03:42:44;7.00;7.00;5.00
77320;PMS7003;66382;52.252;8.780;2023-02-27T03:45:15;6.00;6.00;5.00
77320;PMS7003;66382;52.252;8.780;2023-02-27T03:47:48;18.75;18.75;14.25
77320;PMS7003;66382;52.252;8.780;2023-02-27T03:50:14;16.00;16.00;10.25
77320;PMS7003;66382;52.252;8.780;2023-02-27T03:52:40;16.00;16.00;13.00
77320;PMS7003;66382;52.252;8.780;2023-02-27T03:55:10;10.00;10.00;8.50
77320;PMS7003;66382;52.252;8.780;2023-02-27T03:57:40;8.50;8.50;6.75
77320;PMS7003;66382;52.252;8.780;2023-02-27T04:00:08;8.75;8.75;8.00
77320;PMS7003;66382;52.252;8.780;2023-02-27T04:02:36;9.00;9.00;6.00
77320;PMS7003;66382;52.252;8.780;2023-02-27T04:05:03;9.25;9.25;8.00
77320;PMS7003;66382;52.252;8.780;2023-02-27T04:07:31;7.75;7.75;6.00
77320;PMS7003;66382;52.252;8.780;2023-02-27T04:10:13;9.00;9.00;8.00
77320;PMS7003;66382;52.252;8.780;2023-02-27T04:12:48;9.25;9.25;8.00
77320;PMS7003;66382;52.252;8.780;2023-02-27T04:15:28;9.75;9.75;8.75
77320;PMS7003;66382;52.252;8.780;2023-02-27T04:18:10;8.75;8.75;7.00
77320;PMS7003;66382;52.252;8.780;2023-02-27T04:20:43;9.00;9.00;8.00
77320;PMS7003;66382;52.252;8.780;2023-02-27T04:23:15;10.50;10.50;8.00
77320;PMS7003;66382;52.252;8.780;2023-02-27T04:25:55;8.50;8.50;6.25
77320;PMS7003;66382;52.252;8.780;2023-02-27T04:28:35;6.00;6.00;5.50
77320;PMS7003;66382;52.252;8.780;2023-02-27T04:31:09;7.75;7.75;6.00
77320;PMS7003;66382;52.252;8.780;2023-02-27T04:33:43;9.00;9.00;7.50
77320;PMS7003;66382;52.252;8.780;2023-02-27T04:36:15;9.25;9.25;8.00
77320;PMS7003;66382;52.252;8.780;2023-02-27T04:38:48;11.75;10.00;9.00
77320;PMS7003;66382;52.252;8.780;2023-02-27T04:41:22;9.25;9.25;6.00
77320;PMS7003;66382;52.252;8.780;2023-02-27T04:43:52;10.00;10.00;9.00
77320;PMS7003;66382;52.252;8.780;2023-02-27T04:46:21;9.00;9.00;8.25
77320;PMS7003;66382;52.252;8.780;2023-02-27T04:48:51;5.00;5.00;5.00
77320;PMS7003;66382;52.252;8.780;2023-02-27T04:51:23;7.00;7.00;5.25
77320;PMS7003;66382;52.252;8.780;2023-02-27T04:53:52;6.75;6.75;6.00
77320;PMS7003;66382;52.252;8.780;2023-02-27T04:56:24;9.00;9.00;8.00
77320;PMS7003;66382;52.252;8.780;2023-02-27T04:58:56;8.00;8.00;6.25
77320;PMS7003;66382;52.252;8.780;2023-02-27T05:01:25;10.25;10.25;9.00
77320;PMS7003;66382;52.252;8.780;2023-02-27T05:03:58;15.00;15.00;11.00
77320;PMS7003;66382;52.252;8.780;2023-02-27T05:06:28;30.25;28.50;17.00
77320;PMS7003;66382;52.252;8.780;2023-02-27T05:08:58;25.50;25.25;16.00
77320;PMS7003;66382;52.252;8.780;2023-02-27T05:11:33;29.00;29.00;20.00
77320;PMS7003;66382;52.252;8.780;2023-02-27T05:14:07;19.75;19.75;10.75
77320;PMS7003;66382;52.252;8.780;2023-02-27T05:16:40;23.50;23.00;16.25
77320;PMS7003;66382;52.252;8.780;2023-02-27T05:19:09;27.75;26.25;17.00
77320;PMS7003;66382;52.252;8.780;2023-02-27T05:21:36;20.75;20.75;16.50
77320;PMS7003;66382;52.252;8.780;2023-02-27T05:24:08;12.50;12.50;12.50
77320;PMS7003;66382;52.252;8.780;2023-02-27T05:26:48;25.00;25.00;18.25
77320;PMS7003;66382;52.252;8.780;2023-02-27T05:29:27;26.00;26.00;19.25
77320;PMS7003;66382;52.252;8.780;2023-02-27T05:32:02;21.75;21.75;17.25
77320;PMS7003;66382;52.252;8.780;2023-02-27T05:34:36;24.50;24.50;19.75
77320;PMS7003;66382;52.252;8.780;2023-02-27T05:37:09;24.50;24.50;19.00
77320;PMS7003;66382;52.252;8.780;2023-02-27T05:39:37;29.25;29.25;23.00
77320;PMS7003;66382;52.252;8.780;2023-02-27T05:42:07;27.67;27.67;19.00
77320;PMS7003;66382;52.252;8.780;2023-02-27T05:44:38;24.50;24.50;16.75
77320;PMS7003;66382;52.252;8.780;2023-02-27T05:47:09;20.00;20.00;15.00
77320;PMS7003;66382;52.252;8.780;2023-02-27T05:49:40;18.25;17.25;14.25
77320;PMS7003;66382;52.252;8.780;2023-02-27T05:52:11;19.00;19.00;15.00
77320;PMS7003;66382;52.252;8.780;2023-02-27T05:54:41;17.00;17.00;14.75
77320;PMS7003;66382;52.252;8.780;2023-02-27T05:57:15;15.50;15.50;12.25
77320;PMS7003;66382;52.252;8.780;2023-02-27T05:59:47;16.00;16.00;12.00
77320;PMS7003;66382;52.252;8.780;2023-02-27T06:02:19;16.25;16.25;13.00
77320;PMS7003;66382;52.252;8.780;2023-02-27T06:04:45;15.00;15.00;13.50
77320;PMS7003;66382;52.252;8.780;2023-02-27T06:07:12;13.75;13.75;12.00
77320;PMS7003;66382;52.252;8.780;2023-02-27T06:09:38;15.25;15.25;12.50
77320;PMS7003;66382;52.252;8.780;2023-02-27T06:12:04;17.75;17.75;15.00
77320;PMS7003;66382;52.252;8.780;2023-02-27T06:14:31;18.25;18.25;14.00
77320;PMS7003;66382;52.252;8.780;2023-02-27T06:16:57;17.75;17.75;13.75
77320;PMS7003;66382;52.252;8.780;2023-02-27T06:19:22;8.25;8.25;7.50
77320;PMS7003;66382;52.252;8.780;2023-02-27T06:21:48;14.25;14.25;12.50
77320;PMS7003;66382;52.252;8.780;2023-02-27T06:24:14;15.25;15.25;14.00
77320;PMS7003;66382;52.252;8.780;2023-02-27T06:26:39;16.50;16.50;14.25
77320;PMS7003;66382;52.252;8.780;2023-02-27T06:29:05;14.00;14.00;12.50
77320;PMS7003;66382;52.252;8.780;2023-02-27T06:31:32;17.75;16.75;13.00
77320;PMS7003;66382;52.252;8.780;2023-02-27T06:33:58;13.50;13.50;10.25
77320;PMS7003;66382;52.252;8.780;2023-02-27T06:36:24;14.25;14.25;13.00
77320;PMS7003;66382;52.252;8.780;2023-02-27T06:38:49;15.25;15.25;13.00
77320;PMS7003;66382;52.252;8.780;2023-02-27T06:41:15;16.00;16.00;12.00
77320;PMS7003;66382;52.252;8.780;2023-02-27T06:43:41;16.25;15.25;11.25
77320;PMS7003;66382;52.252;8.780;2023-02-27T06:46:06;16.75;16.75;13.25
77320;PMS7003;66382;52.252;8.780;2023-02-27T06:48:33;13.75;13.75;12.00
77320;PMS7003;66382;52.252;8.780;2023-02-27T06:50:59;13.00;13.00;11.25
77320;PMS7003;66382;52.252;8.780;2023-02-27T06:53:25;18.00;18.00;14.00
77320;PMS7003;66382;52.252;8.780;2023-02-27T06:55:50;13.00;13.00;10.50
77320;PMS7003;66382;52.252;8.780;2023-02-27T06:58:16;13.25;13.25;10.25
77320;PMS7003;66382;52.252;8.780;2023-02-27T07:00:43;13.00;13.00;10.75
77320;PMS7003;66382;52.252;8.780;2023-02-27T07:03:08;14.75;14.75;12.00
77320;PMS7003;66382;52.252;8.780;2023-02-27T07:05:36;13.00;13.00;13.00
77320;PMS7003;66382;52.252;8.780;2023-02-27T07:08:02;17.50;17.50;14.75
77320;PMS7003;66382;52.252;8.780;2023-02-27T07:10:28;16.25;16.25;13.75
77320;PMS7003;66382;52.252;8.780;2023-02-27T07:12:54;14.00;14.00;11.00
77320;PMS7003;66382;52.252;8.780;2023-02-27T07:15:19;16.00;16.00;14.00
77320;PMS7003;66382;52.252;8.780;2023-02-27T07:17:45;14.25;14.25;12.50
77320;PMS7003;66382;52.252;8.780;2023-02-27T07:20:11;15.00;15.00;12.25
77320;PMS7003;66382;52.252;8.780;2023-02-27T07:22:39;14.50;14.50;12.75
77320;PMS7003;66382;52.252;8.780;2023-02-27T07:25:05;8.75;8.75;8.50
77320;PMS7003;66382;52.252;8.780;2023-02-27T07:27:32;33.50;33.25;22.25
77320;PMS7003;66382;52.252;8.780;2023-02-27T07:29:58;35.00;35.00;24.75
77320;PMS7003;66382;52.252;8.780;2023-02-27T07:32:23;36.25;34.75;23.25
77320;PMS7003;66382;52.252;8.780;2023-02-27T07:34:49;82.33;68.67;41.00
77320;PMS7003;66382;52.252;8.780;2023-02-27T07:37:15;92.00;82.33;41.67
77320;PMS7003;66382;52.252;8.780;2023-02-27T07:39:42;44.50;41.00;27.00
77320;PMS7003;66382;52.252;8.780;2023-02-27T07:42:07;21.75;21.75;17.00
77320;PMS7003;66382;52.252;8.780;2023-02-27T07:44:33;20.00;20.00;17.00
77320;PMS7003;66382;52.252;8.780;2023-02-27T07:46:59;23.25;21.50;17.25
77320;PMS7003;66382;52.252;8.780;2023-02-27T07:49:25;33.00;33.00;24.50
77320;PMS7003;66382;52.252;8.780;2023-02-27T07:51:50;45.75;42.00;29.25
77320;PMS7003;66382;52.252;8.780;2023-02-27T07:54:16;27.75;27.00;16.75
77320;PMS7003;66382;52.252;8.780;2023-02-27T07:56:43;40.00;37.75;27.00
77320;PMS7003;66382;52.252;8.780;2023-02-27T07:59:09;36.50;35.75;25.50
77320;PMS7003;66382;52.252;8.780;2023-02-27T08:01:35;48.00;41.75;30.25
77320;PMS7003;66382;52.252;8.780;2023-02-27T08:04:00;27.75;27.75;20.50
77320;PMS7003;66382;52.252;8.780;2023-02-27T08:06:26;26.25;26.25;21.25
77320;PMS7003;66382;52.252;8.780;2023-02-27T08:08:52;14.75;14.75;12.00
77320;PMS7003;66382;52.252;8.780;2023-02-27T08:11:17;14.00;14.00;11.50
77320;PMS7003;66382;52.252;8.780;2023-02-27T08:13:44;12.25;12.25;10.25
77320;PMS7003;66382;52.252;8.780;2023-02-27T08:16:10;13.00;13.00;10.25
77320;PMS7003;66382;52.252;8.780;2023-02-27T08:18:37;13.00;13.00;10.75
77320;PMS7003;66382;52.252;8.780;2023-02-27T08:21:02;14.75;14.75;11.25
77320;PMS7003;66382;52.252;8.780;2023-02-27T08:23:28;10.50;10.50;9.00
77320;PMS7003;66382;52.252;8.780;2023-02-27T08:25:54;8.25;8.25;7.00
77320;PMS7003;66382;52.252;8.780;2023-02-27T08:28:20;12.75;12.75;11.00
77320;PMS7003;66382;52.252;8.780;2023-02-27T08:30:47;11.00;10.75;9.00
77320;PMS7003;66382;52.252;8.780;2023-02-27T08:33:13;10.75;10.75;10.00
77320;PMS7003;66382;52.252;8.780;2023-02-27T08:35:38;10.50;10.50;9.00
77320;PMS7003;66382;52.252;8.780;2023-02-27T08:38:04;40.50;36.50;26.25
77320;PMS7003;66382;52.252;8.780;2023-02-27T08:40:30;11.25;11.25;9.25
77320;PMS7003;66382;52.252;8.780;2023-02-27T08:42:56;12.00;12.00;9.00
77320;PMS7003;66382;52.252;8.780;2023-02-27T08:45:22;8.67;8.67;8.00
77320;PMS7003;66382;52.252;8.780;2023-02-27T08:47:49;10.00;10.00;8.00
77320;PMS7003;66382;52.252;8.780;2023-02-27T08:50:15;9.00;9.00;7.33
77320;PMS7003;66382;52.252;8.780;2023-02-27T08:52:41;8.67;8.67;8.00
77320;PMS7003;66382;52.252;8.780;2023-02-27T08:55:07;10.00;10.00;9.67
77320;PMS7003;66382;52.252;8.780;2023-02-27T08:57:33;9.00;9.00;7.33
77320;PMS7003;66382;52.252;8.780;2023-02-27T08:59:59;9.00;9.00;8.00
77320;PMS7003;66382;52.252;8.780;2023-02-27T09:02:25;9.67;9.67;7.00
77320;PMS7003;66382;52.252;8.780;2023-02-27T09:04:52;9.00;9.00;7.00
77320;PMS7003;66382;52.252;8.780;2023-02-27T09:07:18;7.75;7.75;6.75
77320;PMS7003;66382;52.252;8.780;2023-02-27T09:09:44;7.00;7.00;5.00
77320;PMS7003;66382;52.252;8.780;2023-02-27T09:12:09;10.00;10.00;8.33
77320;PMS7003;66382;52.252;8.780;2023-02-27T09:14:35;10.67;10.67;9.00
77320;PMS7003;66382;52.252;8.780;2023-02-27T09:17:01;9.33;9.33;8.00
77320;PMS7003;66382;52.252;8.780;2023-02-27T09:19:27;12.00;12.00;9.00
77320;PMS7003;66382;52.252;8.780;2023-02-27T09:21:54;9.00;9.00;8.00
77320;PMS7003;66382;52.252;8.780;2023-02-27T09:24:20;8.67;8.67;7.33
77320;PMS7003;66382;52.252;8.780;2023-02-27T09:26:46;11.00;11.00;8.00
77320;PMS7003;66382;52.252;8.780;2023-02-27T09:29:12;8.67;8.67;7.00
77320;PMS7003;66382;52.252;8.780;2023-02-27T09:31:38;9.00;9.00;8.00
77320;PMS7003;66382;52.252;8.780;2023-02-27T09:34:03;9.00;9.00;7.00
77320;PMS7003;66382;52.252;8.780;2023-02-27T09:36:29;13.67;13.67;10.33
77320;PMS7003;66382;52.252;8.780;2023-02-27T09:38:56;11.00;11.00;8.00
77320;PMS7003;66382;52.252;8.780;2023-02-27T09:41:27;9.75;9.75;8.50
77320;PMS7003;66382;52.252;8.780;2023-02-27T09:44:12;10.00;10.00;8.00
77320;PMS7003;66382;52.252;8.780;2023-02-27T09:46:45;8.75;8.75;7.75
77320;PMS7003;66382;52.252;8.780;2023-02-27T09:49:11;7.50;7.50;6.50
77320;PMS7003;66382;52.252;8.780;2023-02-27T09:51:42;9.25;9.25;8.00
77320;PMS7003;66382;52.252;8.780;2023-02-27T09:54:10;10.67;10.67;9.00
77320;PMS7003;66382;52.252;8.780;2023-02-27T09:56:38;12.33;12.33;9.00
77320;PMS7003;66382;52.252;8.780;2023-02-27T09:59:12;6.50;6.50;6.00
77320;PMS7003;66382;52.252;8.780;2023-02-27T10:01:46;10.00;10.00;8.67
77320;PMS7003;66382;52.252;8.780;2023-02-27T10:04:23;10.00;10.00;8.33
77320;PMS7003;66382;52.252;8.780;2023-02-27T10:06:56;7.33;7.33;6.33
77320;PMS7003;66382;52.252;8.780;2023-02-27T10:09:31;8.00;8.00;7.00
77320;PMS7003;66382;52.252;8.780;2023-02-27T10:12:05;9.33;9.33;8.00
77320;PMS7003;66382;52.252;8.780;2023-02-27T10:14:50;7.00;7.00;6.00
77320;PMS7003;66382;52.252;8.780;2023-02-27T10:17:23;8.25;8.25;5.75
77320;PMS7003;66382;52.252;8.780;2023-02-27T10:19:53;8.50;8.50;7.75
77320;PMS7003;66382;52.252;8.780;2023-02-27T10:22:20;8.75;8.75;7.00
77320;PMS7003;66382;52.252;8.780;2023-02-27T10:24:53;6.25;6.00;4.75
77320;PMS7003;66382;52.252;8.780;2023-02-27T10:27:22;8.00;8.00;6.75
77320;PMS7003;66382;52.252;8.780;2023-02-27T10:29:48;4.67;4.67;3.67
77320;PMS7003;66382;52.252;8.780;2023-02-27T10:32:15;7.25;7.25;6.25
77320;PMS7003;66382;52.252;8.780;2023-02-27T10:34:45;9.75;9.75;7.75
77320;PMS7003;66382;52.252;8.780;2023-02-27T10:37:15;11.00;11.00;9.00
77320;PMS7003;66382;52.252;8.780;2023-02-27T10:39:46;8.75;8.75;7.00
77320;PMS7003;66382;52.252;8.780;2023-02-27T10:42:15;11.00;11.00;10.00
77320;PMS7003;66382;52.252;8.780;2023-02-27T10:44:42;10.33;10.33;9.00
77320;PMS7003;66382;52.252;8.780;2023-02-27T10:47:10;10.00;10.00;8.00
77320;PMS7003;66382;52.252;8.780;2023-02-27T10:49:37;12.33;12.33;9.33
77320;PMS7003;66382;52.252;8.780;2023-02-27T10:52:05;11.33;11.33;9.00
77320;PMS7003;66382;52.252;8.780;2023-02-27T10:54:33;8.00;8.00;7.00
77320;PMS7003;66382;52.252;8.780;2023-02-27T10:57:00;10.00;10.00;8.67
77320;PMS7003;66382;52.252;8.780;2023-02-27T10:59:30;11.25;11.25;9.75
77320;PMS7003;66382;52.252;8.780;2023-02-27T11:01:58;10.50;10.50;9.50
77320;PMS7003;66382;52.252;8.780;2023-02-27T11:04:27;8.00;8.00;8.00
77320;PMS7003;66382;52.252;8.780;2023-02-27T11:06:55;9.25;9.25;7.75
77320;PMS7003;66382;52.252;8.780;2023-02-27T11:09:23;11.00;11.00;9.25
77320;PMS7003;66382;52.252;8.780;2023-02-27T11:11:51;11.00;11.00;9.25
77320;PMS7003;66382;52.252;8.780;2023-02-27T11:14:22;9.25;9.25;7.00
77320;PMS7003;66382;52.252;8.780;2023-02-27T11:16:55;7.75;7.75;5.75
77320;PMS7003;66382;52.252;8.780;2023-02-27T11:19:23;5.75;5.75;4.25
77320;PMS7003;66382;52.252;8.780;2023-02-27T11:22:00;6.00;6.00;5.00
77320;PMS7003;66382;52.252;8.780;2023-02-27T11:24:27;6.25;6.25;4.75
77320;PMS7003;66382;52.252;8.780;2023-02-27T11:26:54;6.50;6.50;4.75
77320;PMS7003;66382;52.252;8.780;2023-02-27T11:29:21;5.00;5.00;4.00
77320;PMS7003;66382;52.252;8.780;2023-02-27T11:31:48;4.50;4.50;4.00
77320;PMS7003;66382;52.252;8.780;2023-02-27T11:34:20;5.00;5.00;3.25
77320;PMS7003;66382;52.252;8.780;2023-02-27T11:36:49;6.50;6.50;5.00
77320;PMS7003;66382;52.252;8.780;2023-02-27T11:39:19;7.25;7.25;5.50
77320;PMS7003;66382;52.252;8.780;2023-02-27T11:41:49;6.00;6.00;5.00
77320;PMS7003;66382;52.252;8.780;2023-02-27T11:44:16;6.50;6.50;5.25
77320;PMS7003;66382;52.252;8.780;2023-02-27T11:46:43;4.00;4.00;3.50
77320;PMS7003;66382;52.252;8.780;2023-02-27T11:49:13;4.25;4.25;4.25
77320;PMS7003;66382;52.252;8.780;2023-02-27T11:51:51;6.25;6.25;5.00
77320;PMS7003;66382;52.252;8.780;2023-02-27T11:54:31;6.00;6.00;5.00
77320;PMS7003;66382;52.252;8.780;2023-02-27T11:57:03;6.00;6.00;6.00
77320;PMS7003;66382;52.252;8.780;2023-02-27T11:59:39;6.00;6.00;5.00
77320;PMS7003;66382;52.252;8.780;2023-02-27T12:02:11;10.00;10.00;7.75
77320;PMS7003;66382;52.252;8.780;2023-02-27T12:04:45;7.50;7.50;6.00
77320;PMS7003;66382;52.252;8.780;2023-02-27T12:07:18;7.25;7.25;6.50
77320;PMS7003;66382;52.252;8.780;2023-02-27T12:09:50;6.00;6.00;5.00
77320;PMS7003;66382;52.252;8.780;2023-02-27T12:12:25;10.25;10.25;6.75
77320;PMS7003;66382;52.252;8.780;2023-02-27T12:14:58;7.25;7.25;6.00
77320;PMS7003;66382;52.252;8.780;2023-02-27T12:17:31;6.00;6.00;6.00
77320;PMS7003;66382;52.252;8.780;2023-02-27T12:20:07;7.50;7.50;6.00
77320;PMS7003;66382;52.252;8.780;2023-02-27T12:22:46;6.00;6.00;5.75
77320;PMS7003;66382;52.252;8.780;2023-02-27T12:25:18;7.00;7.00;6.00
77320;PMS7003;66382;52.252;8.780;2023-02-27T12:27:53;5.00;5.00;4.00
77320;PMS7003;66382;52.252;8.780;2023-02-27T12:30:26;5.00;5.00;5.00
77320;PMS7003;66382;52.252;8.780;2023-02-27T12:32:54;4.25;4.25;3.50
77320;PMS7003;66382;52.252;8.780;2023-02-27T12:35:28;5.00;5.00;5.00
77320;PMS7003;66382;52.252;8.780;2023-02-27T12:37:55;5.50;5.50;5.00
77320;PMS7003;66382;52.252;8.780;2023-02-27T12:40:24;5.00;5.00;4.75
77320;PMS7003;66382;52.252;8.780;2023-02-27T12:42:58;6.00;6.00;5.75
77320;PMS7003;66382;52.252;8.780;2023-02-27T12:45:40;6.25;6.25;5.00
77320;PMS7003;66382;52.252;8.780;2023-02-27T12:48:22;6.25;6.25;5.00
77320;PMS7003;66382;52.252;8.780;2023-02-27T12:51:02;8.25;8.25;7.00
77320;PMS7003;66382;52.252;8.780;2023-02-27T12:53:47;6.75;6.75;5.75
77320;PMS7003;66382;52.252;8.780;2023-02-27T12:56:25;7.50;7.50;5.25
77320;PMS7003;66382;52.252;8.780;2023-02-27T12:59:01;8.50;8.50;7.00
77320;PMS7003;66382;52.252;8.780;2023-02-27T13:01:35;8.25;8.25;6.75
77320;PMS7003;66382;52.252;8.780;2023-02-27T13:04:12;8.50;8.50;6.75
77320;PMS7003;66382;52.252;8.780;2023-02-27T13:06:48;6.50;6.50;6.00
77320;PMS7003;66382;52.252;8.780;2023-02-27T13:09:23;5.75;5.75;5.00
77320;PMS7003;66382;52.252;8.780;2023-02-27T13:11:59;5.25;5.25;4.50
77320;PMS7003;66382;52.252;8.780;2023-02-27T13:14:37;5.50;5.50;5.00
77320;PMS7003;66382;52.252;8.780;2023-02-27T13:17:11;5.25;5.25;5.00
77320;PMS7003;66382;52.252;8.780;2023-02-27T13:19:47;5.25;5.25;4.00
77320;PMS7003;66382;52.252;8.780;2023-02-27T13:22:19;7.00;7.00;5.00
77320;PMS7003;66382;52.252;8.780;2023-02-27T13:24:52;7.00;7.00;5.00
77320;PMS7003;66382;52.252;8.780;2023-02-27T13:27:22;6.50;6.50;5.00
77320;PMS7003;66382;52.252;8.780;2023-02-27T13:29:53;2.00;2.00;1.50
77320;PMS7003;66382;52.252;8.780;2023-02-27T13:32:30;4.75;4.00;3.75
77320;PMS7003;66382;52.252;8.780;2023-02-27T13:35:05;4.00;4.00;3.75
77320;PMS7003;66382;52.252;8.780;2023-02-27T13:37:54;4.75;4.00;1.75
77320;PMS7003;66382;52.252;8.780;2023-02-27T13:40:29;69.33;56.67;33.67
77320;PMS7003;66382;52.252;8.780;2023-02-27T13:43:01;25.25;25.25;15.75
77320;PMS7003;66382;52.252;8.780;2023-02-27T13:45:45;12.25;12.25;11.00
77320;PMS7003;66382;52.252;8.780;2023-02-27T13:51:08;18.50;18.50;13.50
77320;PMS7003;66382;52.252;8.780;2023-02-27T13:54:06;6.50;6.50;5.25
77320;PMS7003;66382;52.252;8.780;2023-02-27T13:56:43;6.00;6.00;5.00
77320;PMS7003;66382;52.252;8.780;2023-02-27T13:59:11;3.25;3.25;3.00
77320;PMS7003;66382;52.252;8.780;2023-02-27T14:01:46;3.25;3.25;3.00
77320;PMS7003;66382;52.252;8.780;2023-02-27T14:04:16;3.50;3.50;3.50
77320;PMS7003;66382;52.252;8.780;2023-02-27T14:06:43;7.00;7.00;5.75
77320;PMS7003;66382;52.252;8.780;2023-02-27T14:09:12;4.25;4.25;3.25
77320;PMS7003;66382;52.252;8.780;2023-02-27T14:11:49;6.00;6.00;4.00
77320;PMS7003;66382;52.252;8.780;2023-02-27T14:17:07;3.00;3.00;2.50
77320;PMS7003;66382;52.252;8.780;2023-02-27T14:19:46;3.50;3.50;3.00
77320;PMS7003;66382;52.252;8.780;2023-02-27T14:25:33;4.25;4.25;3.00
77320;PMS7003;66382;52.252;8.780;2023-02-27T14:28:01;2.75;2.75;2.00
77320;PMS7003;66382;52.252;8.780;2023-02-27T14:30:32;2.00;2.00;2.00
77320;PMS7003;66382;52.252;8.780;2023-02-27T14:33:09;3.75;3.75;3.25
77320;PMS7003;66382;52.252;8.780;2023-02-27T14:35:41;4.00;4.00;3.50
77320;PMS7003;66382;52.252;8.780;2023-02-27T14:38:09;1.00;1.00;1.00
77320;PMS7003;66382;52.252;8.780;2023-02-27T14:40:42;3.00;3.00;2.00
77320;PMS7003;66382;52.252;8.780;2023-02-27T14:43:20;3.00;3.00;2.75
77320;PMS7003;66382;52.252;8.780;2023-02-27T14:46:02;2.75;2.75;2.00